Time;durP1;ratioP1;P1;durP2;ratioP2;P2;SDS_P1;SDS_P2;PMS_P1;PMS_P2;Temp;Humidity;BMP_temperature;BMP_pressure;BME280_temperature;BME280_humidity;BME280_pressure;Samples;Min_cycle;Max_cycle;Signal;HPM_P1;HPM_P2
2021/12/01 00:01:05;;;;;;;4.47;1.60;;;9.80;99.90;;;;;;5117807;28;20308;-77
2021/12/01 00:03:33;;;;;;;3.10;1.60;;;9.80;99.90;;;;;;5118893;28;20748;-78
2021/12/01 00:06:00;;;;;;;2.90;1.37;;;9.80;99.90;;;;;;5121742;28;20224;-77
2021/12/01 00:08:28;;;;;;;8.80;2.33;;;9.80;99.90;;;;;;5117496;28;20283;-78
2021/12/01 00:10:55;;;;;;;6.17;1.90;;;9.80;99.90;;;;;;5111164;28;20280;-78
2021/12/01 00:13:23;;;;;;;4.47;2.30;;;9.80;99.90;;;;;;5111540;28;20273;-78
2021/12/01 00:15:51;;;;;;;5.30;1.87;;;9.70;99.90;;;;;;5112399;28;20278;-77
2021/12/01 00:18:18;;;;;;;4.13;1.80;;;9.80;99.90;;;;;;5124039;28;20281;-78
2021/12/01 00:20:46;;;;;;;3.97;1.47;;;9.70;99.90;;;;;;5117094;28;20729;-78
2021/12/01 00:23:13;;;;;;;2.87;1.00;;;9.70;99.90;;;;;;5112096;28;20681;-78
2021/12/01 00:25:42;;;;;;;6.17;1.50;;;9.80;99.90;;;;;;5112003;28;20288;-78
2021/12/01 00:28:10;;;;;;;4.00;1.10;;;9.70;99.90;;;;;;5112106;28;20198;-77
2021/12/01 00:30:40;;;;;;;5.43;1.00;;;9.70;99.90;;;;;;5112876;28;20194;-78
2021/12/01 00:33:09;;;;;;;2.67;0.80;;;9.70;99.90;;;;;;5077995;28;20198;-78
2021/12/01 00:35:36;;;;;;;2.43;0.90;;;9.80;99.90;;;;;;5120434;28;20688;-78
2021/12/01 00:38:04;;;;;;;2.20;0.70;;;9.80;99.90;;;;;;5113343;28;20201;-77
2021/12/01 00:40:31;;;;;;;2.30;1.00;;;9.70;99.90;;;;;;5112466;28;20245;-78
2021/12/01 00:43:00;;;;;;;3.83;0.90;;;9.80;99.90;;;;;;5111369;28;20613;-78
2021/12/01 00:45:28;;;;;;;1.60;0.70;;;9.80;99.90;;;;;;5112243;28;20228;-78
2021/12/01 00:47:56;;;;;;;2.83;0.90;;;9.80;99.90;;;;;;5119116;28;20410;-78
2021/12/01 00:50:25;;;;;;;4.80;0.80;;;9.70;99.90;;;;;;5131528;27;20248;-77
2021/12/01 00:52:54;;;;;;;2.50;1.10;;;9.70;99.90;;;;;;5128028;27;20232;-77
2021/12/01 00:55:21;;;;;;;1.70;0.87;;;9.70;99.90;;;;;;5116153;27;20225;-78
2021/12/01 00:57:50;;;;;;;3.87;0.80;;;9.70;99.90;;;;;;5121120;27;20212;-78
2021/12/01 01:00:21;;;;;;;6.23;1.83;;;9.70;99.90;;;;;;5115471;28;20724;-78
2021/12/01 01:02:48;;;;;;;4.80;1.00;;;9.70;99.90;;;;;;5115040;28;20201;-78
2021/12/01 01:05:15;;;;;;;3.07;1.00;;;9.70;99.90;;;;;;5107120;27;20331;-78
2021/12/01 01:07:42;;;;;;;6.33;1.20;;;9.70;99.90;;;;;;5124532;27;20291;-78
2021/12/01 01:10:29;;;;;;;4.07;1.10;;;9.70;99.90;;;;;;5116114;27;20332;-78
2021/12/01 01:18:30;;;;;;;4.27;1.33;;;9.80;99.90;;;;;;5114230;27;20238;-78
2021/12/01 01:20:58;;;;;;;4.93;1.30;;;9.80;99.90;;;;;;5115579;27;20319;-78
2021/12/01 01:23:26;;;;;;;4.83;1.30;;;9.80;99.90;;;;;;5118302;27;20294;-78
2021/12/01 01:25:54;;;;;;;4.20;1.90;;;9.80;99.90;;;;;;5115158;28;20688;-77
2021/12/01 01:28:20;;;;;;;5.23;1.10;;;9.80;99.90;;;;;;5120534;27;20276;-78
2021/12/01 01:30:49;;;;;;;5.93;1.63;;;9.80;99.90;;;;;;5115207;28;20283;-78
2021/12/01 01:33:16;;;;;;;5.47;1.47;;;9.70;99.90;;;;;;5114554;27;20282;-78
2021/12/01 01:35:43;;;;;;;6.23;1.50;;;9.70;99.90;;;;;;5124422;27;20286;-78
2021/12/01 01:38:10;;;;;;;5.23;1.40;;;9.60;99.90;;;;;;5113160;28;20645;-78
2021/12/01 01:40:37;;;;;;;6.80;1.40;;;9.80;99.90;;;;;;5114451;28;20238;-78
2021/12/01 01:43:04;;;;;;;4.70;1.30;;;9.80;99.90;;;;;;5113832;27;20217;-77
2021/12/01 01:45:31;;;;;;;4.77;1.30;;;9.70;99.90;;;;;;5114464;28;20290;-77
2021/12/01 01:48:01;;;;;;;5.60;1.40;;;9.70;99.90;;;;;;5113926;28;20276;-77
2021/12/01 01:50:36;;;;;;;3.53;1.20;;;9.70;99.90;;;;;;5114333;27;20196;-77
2021/12/01 01:53:06;;;;;;;5.37;1.23;;;9.70;99.90;;;;;;5110625;28;20201;-77
2021/12/01 01:55:33;;;;;;;6.23;1.50;;;9.70;99.90;;;;;;5114106;28;20560;-77
2021/12/01 01:58:00;;;;;;;3.13;1.00;;;9.70;99.90;;;;;;5114643;28;20236;-77
2021/12/01 02:00:28;;;;;;;4.63;1.30;;;9.80;99.90;;;;;;5112947;28;20304;-77
2021/12/01 02:02:58;;;;;;;5.73;1.20;;;9.80;99.90;;;;;;5113738;28;20194;-77
2021/12/01 02:05:27;;;;;;;4.13;1.23;;;9.70;99.90;;;;;;5113454;28;20276;-77
2021/12/01 02:07:54;;;;;;;3.23;0.90;;;9.80;99.90;;;;;;5114348;28;20201;-77
2021/12/01 02:10:21;;;;;;;2.53;0.90;;;9.80;99.90;;;;;;5114104;27;20276;-77
2021/12/01 02:12:48;;;;;;;5.17;1.30;;;9.80;99.90;;;;;;5114175;28;20305;-76
2021/12/01 02:15:16;;;;;;;4.90;0.80;;;9.80;99.90;;;;;;5126633;27;20240;-77
2021/12/01 02:17:43;;;;;;;2.70;1.07;;;9.80;99.90;;;;;;5130932;27;20209;-77
2021/12/01 02:20:21;;;;;;;3.50;0.90;;;9.80;99.90;;;;;;5113613;27;20322;-77
2021/12/01 02:22:48;;;;;;;5.20;1.07;;;9.80;99.90;;;;;;5113596;27;20291;-77
2021/12/01 02:25:15;;;;;;;3.50;0.90;;;9.80;99.90;;;;;;5113267;27;20235;-77
2021/12/01 02:27:42;;;;;;;3.37;1.17;;;9.80;99.90;;;;;;5124582;27;20196;-77
2021/12/01 02:30:10;;;;;;;4.13;0.90;;;9.90;99.90;;;;;;5113071;27;20732;-77
2021/12/01 02:32:36;;;;;;;3.33;0.90;;;9.80;99.90;;;;;;5126851;27;20239;-77
2021/12/01 02:35:04;;;;;;;2.83;0.90;;;9.80;99.90;;;;;;5105271;28;20322;-77
2021/12/01 02:37:33;;;;;;;3.33;0.80;;;9.90;99.90;;;;;;5112338;28;20243;-77
2021/12/01 02:40:00;;;;;;;1.87;0.93;;;9.90;99.90;;;;;;5113396;28;20296;-77
2021/12/01 02:42:26;;;;;;;1.53;0.77;;;9.90;99.90;;;;;;5112640;28;20220;-76
2021/12/01 02:44:54;;;;;;;3.10;0.87;;;10.00;99.90;;;;;;5112754;28;20289;-77
2021/12/01 02:47:23;;;;;;;4.23;0.80;;;10.00;99.90;;;;;;5115310;27;20253;-77
2021/12/01 02:49:51;;;;;;;3.17;0.67;;;10.00;99.90;;;;;;5124072;27;20577;-77
2021/12/01 02:52:18;;;;;;;2.33;0.60;;;10.00;99.90;;;;;;5112298;28;20581;-77
2021/12/01 02:54:47;;;;;;;3.37;0.80;;;10.10;99.90;;;;;;5112893;28;20631;-77
2021/12/01 02:57:13;;;;;;;4.60;0.70;;;10.00;99.90;;;;;;5112762;28;20288;-78
2021/12/01 02:59:40;;;;;;;2.60;1.23;;;10.10;99.90;;;;;;5112825;28;20288;-77
2021/12/01 03:02:08;;;;;;;2.93;0.80;;;10.10;99.90;;;;;;5114243;27;20307;-77
2021/12/01 03:04:38;;;;;;;2.87;0.57;;;10.10;99.90;;;;;;5120653;27;20239;-77
2021/12/01 03:07:08;;;;;;;1.77;0.70;;;10.10;99.90;;;;;;5122600;27;20280;-77
2021/12/01 03:09:35;;;;;;;1.33;0.60;;;10.10;99.90;;;;;;5120574;27;20233;-77
2021/12/01 03:12:03;;;;;;;2.50;0.70;;;10.10;99.90;;;;;;5126392;27;20739;-77
2021/12/01 03:14:31;;;;;;;3.20;0.60;;;10.10;99.90;;;;;;5112093;28;20646;-77
2021/12/01 03:16:57;;;;;;;2.83;0.60;;;10.20;99.90;;;;;;5117124;27;20205;-76
2021/12/01 03:19:25;;;;;;;1.20;0.60;;;10.20;99.90;;;;;;5112866;28;20247;-76
2021/12/01 03:21:51;;;;;;;1.77;0.50;;;10.20;99.90;;;;;;5119759;27;20308;-76
2021/12/01 03:24:18;;;;;;;2.73;0.70;;;10.20;99.90;;;;;;5116454;27;20282;-77
2021/12/01 03:26:45;;;;;;;1.40;0.70;;;10.20;99.90;;;;;;5119261;27;20239;-77
2021/12/01 03:29:15;;;;;;;3.40;1.03;;;10.30;99.90;;;;;;5112066;27;20284;-77
2021/12/01 03:31:42;;;;;;;3.30;1.20;;;10.30;99.90;;;;;;5112374;28;20216;-76
2021/12/01 03:34:11;;;;;;;3.03;1.60;;;10.30;99.90;;;;;;5112828;28;20232;-77
2021/12/01 03:36:38;;;;;;;5.23;2.73;;;10.30;99.90;;;;;;5113382;28;20216;-77
2021/12/01 03:39:05;;;;;;;3.83;2.23;;;10.40;99.90;;;;;;5119147;27;20300;-77
2021/12/01 03:41:34;;;;;;;3.57;0.90;;;10.40;99.90;;;;;;5111901;28;20227;-77
2021/12/01 03:44:02;;;;;;;1.93;0.67;;;10.40;99.90;;;;;;5112381;28;20205;-77
2021/12/01 03:46:30;;;;;;;1.53;0.47;;;10.40;99.90;;;;;;5112154;28;20204;-77
2021/12/01 03:48:57;;;;;;;1.00;0.50;;;10.40;99.90;;;;;;5111303;28;20296;-77
2021/12/01 03:51:24;;;;;;;2.67;0.60;;;10.40;99.90;;;;;;5112614;28;20197;-77
2021/12/01 03:53:51;;;;;;;1.83;0.50;;;10.50;99.90;;;;;;5112355;28;20264;-78
2021/12/01 03:56:19;;;;;;;1.77;0.90;;;10.40;99.90;;;;;;5111991;28;20300;-77
2021/12/01 03:58:46;;;;;;;2.20;0.60;;;10.50;99.90;;;;;;5112322;28;20198;-77
2021/12/01 04:01:13;;;;;;;0.80;0.50;;;10.40;99.90;;;;;;5112336;28;20248;-77
2021/12/01 04:03:42;;;;;;;0.77;0.50;;;10.50;99.90;;;;;;5112220;28;20255;-77
2021/12/01 04:06:09;;;;;;;0.93;0.40;;;10.50;99.90;;;;;;5115006;28;20945;-77
2021/12/01 04:08:36;;;;;;;1.50;0.50;;;10.50;99.90;;;;;;5113303;28;20281;-77
2021/12/01 04:11:03;;;;;;;0.80;0.40;;;10.50;99.90;;;;;;5117380;28;20280;-77
2021/12/01 04:13:30;;;;;;;1.57;0.67;;;10.50;99.90;;;;;;5116688;28;20236;-77
2021/12/01 04:15:57;;;;;;;1.53;0.50;;;10.60;99.90;;;;;;5112798;28;20387;-77
2021/12/01 04:18:23;;;;;;;1.17;0.30;;;10.60;99.90;;;;;;5115496;28;20280;-78
2021/12/01 04:20:52;;;;;;;1.80;0.30;;;10.60;99.90;;;;;;5112316;28;20229;-77
2021/12/01 04:23:20;;;;;;;0.50;0.30;;;10.60;99.90;;;;;;5113590;28;20229;-77
2021/12/01 04:25:46;;;;;;;0.83;0.30;;;10.60;99.90;;;;;;5115802;27;20194;-77
2021/12/01 04:28:13;;;;;;;1.70;0.30;;;10.60;99.90;;;;;;5127868;27;20284;-76
2021/12/01 04:30:40;;;;;;;0.87;0.40;;;10.60;99.90;;;;;;5128998;27;20201;-77
2021/12/01 04:33:07;;;;;;;1.13;0.53;;;10.70;99.90;;;;;;5123152;27;20268;-77
2021/12/01 04:35:35;;;;;;;1.27;0.90;;;10.70;99.90;;;;;;5114953;27;20236;-77
2021/12/01 04:38:04;;;;;;;1.10;0.97;;;10.70;99.90;;;;;;5114814;28;20539;-77
2021/12/01 04:40:31;;;;;;;1.23;0.90;;;10.70;99.90;;;;;;5108865;27;20273;-76
2021/12/01 04:42:57;;;;;;;1.53;0.80;;;10.70;99.90;;;;;;5112512;27;20876;-77
2021/12/01 04:45:25;;;;;;;0.77;0.70;;;10.70;99.90;;;;;;5118977;27;20233;-77
2021/12/01 04:47:54;;;;;;;0.60;0.50;;;10.70;99.90;;;;;;5115316;27;20208;-77
2021/12/01 04:50:24;;;;;;;0.77;0.60;;;10.80;99.90;;;;;;5116049;28;20235;-77
2021/12/01 04:52:54;;;;;;;1.00;0.90;;;10.70;99.90;;;;;;5115678;27;20623;-77
2021/12/01 04:55:22;;;;;;;1.00;0.50;;;10.70;99.90;;;;;;5115150;28;20220;-77
2021/12/01 04:57:50;;;;;;;1.10;0.50;;;10.70;99.90;;;;;;5135368;27;20668;-77
2021/12/01 05:00:20;;;;;;;1.33;0.80;;;10.70;99.90;;;;;;5117068;27;20300;-77
2021/12/01 05:02:47;;;;;;;1.80;0.70;;;10.80;99.90;;;;;;5115227;28;20400;-76
2021/12/01 05:05:14;;;;;;;1.10;0.57;;;10.80;99.90;;;;;;5117930;27;20276;-77
2021/12/01 05:07:41;;;;;;;1.90;0.60;;;10.80;99.90;;;;;;5121464;27;20228;-77
2021/12/01 05:10:08;;;;;;;2.63;0.43;;;10.70;99.90;;;;;;5116996;27;20289;-77
2021/12/01 05:12:38;;;;;;;2.40;0.50;;;10.60;99.90;;;;;;5114409;28;20200;-77
2021/12/01 05:15:06;;;;;;;1.33;0.50;;;10.50;99.90;;;;;;5115603;28;20252;-77
2021/12/01 05:17:33;;;;;;;3.60;0.50;;;10.60;99.90;;;;;;5116408;27;20233;-77
2021/12/01 05:20:00;;;;;;;2.43;0.60;;;10.50;99.90;;;;;;5125557;27;20307;-77
2021/12/01 05:22:27;;;;;;;2.00;0.47;;;10.50;99.90;;;;;;5119604;27;20870;-77
2021/12/01 05:24:54;;;;;;;6.50;0.60;;;10.40;99.90;;;;;;5114373;27;20228;-77
2021/12/01 05:27:21;;;;;;;4.83;0.70;;;10.30;99.90;;;;;;5114653;27;20285;-77
2021/12/01 05:29:50;;;;;;;2.73;0.70;;;10.10;99.90;;;;;;5115025;28;20716;-77
2021/12/01 05:32:18;;;;;;;3.00;0.53;;;10.10;99.90;;;;;;5125240;27;20200;-77
2021/12/01 05:34:45;;;;;;;5.33;0.80;;;10.00;99.90;;;;;;5133540;27;20664;-78
2021/12/01 05:37:12;;;;;;;4.10;0.80;;;9.90;99.90;;;;;;5126196;27;20295;-77
2021/12/01 05:39:41;;;;;;;3.87;0.80;;;9.80;99.90;;;;;;5132220;27;20224;-77
2021/12/01 05:42:09;;;;;;;5.20;1.00;;;9.80;99.90;;;;;;5114194;28;20222;-77
2021/12/01 05:44:36;;;;;;;8.10;1.13;;;9.60;99.90;;;;;;5114663;28;20281;-77
2021/12/01 05:47:05;;;;;;;3.07;0.77;;;9.50;99.90;;;;;;5114415;28;20254;-76
2021/12/01 05:49:32;;;;;;;4.13;0.87;;;9.50;99.90;;;;;;5114406;28;20281;-76
2021/12/01 05:51:59;;;;;;;4.20;1.00;;;9.50;99.90;;;;;;5114392;27;20273;-76
2021/12/01 05:54:26;;;;;;;3.27;1.00;;;9.50;99.90;;;;;;5113919;28;20291;-78
2021/12/01 05:56:53;;;;;;;7.63;1.13;;;9.50;99.90;;;;;;5127012;27;20287;-77
2021/12/01 05:59:20;;;;;;;5.77;1.33;;;9.50;99.90;;;;;;5132570;27;20255;-77
2021/12/01 06:01:47;;;;;;;8.37;1.40;;;9.50;99.90;;;;;;5119977;27;20249;-78
2021/12/01 06:04:15;;;;;;;5.50;1.13;;;9.50;99.90;;;;;;5120169;27;20243;-77
2021/12/01 06:06:42;;;;;;;6.43;1.20;;;9.50;99.90;;;;;;5114236;28;20596;-78
2021/12/01 06:09:09;;;;;;;7.53;1.77;;;9.60;99.90;;;;;;5113088;27;20662;-78
2021/12/01 06:11:36;;;;;;;9.20;1.83;;;9.50;99.90;;;;;;5115217;27;20277;-78
2021/12/01 06:14:03;;;;;;;9.20;1.87;;;9.50;99.90;;;;;;5127688;27;20235;-78
2021/12/01 06:16:30;;;;;;;7.47;1.40;;;9.40;99.90;;;;;;5113838;27;20229;-77
2021/12/01 06:18:57;;;;;;;8.17;1.60;;;9.40;99.90;;;;;;5122490;27;20629;-78
2021/12/01 06:21:26;;;;;;;7.37;1.07;;;9.50;99.90;;;;;;5113140;28;20271;-78
2021/12/01 06:23:53;;;;;;;7.67;1.20;;;9.50;99.90;;;;;;5122523;27;20308;-76
2021/12/01 06:26:19;;;;;;;8.17;1.13;;;9.60;99.90;;;;;;5113870;28;20283;-77
2021/12/01 06:28:46;;;;;;;6.07;1.20;;;9.60;99.90;;;;;;5113103;28;20290;-76
2021/12/01 06:31:13;;;;;;;6.70;1.30;;;9.60;99.90;;;;;;5118031;27;20260;-77
2021/12/01 06:33:40;;;;;;;6.80;1.20;;;9.50;99.90;;;;;;5109212;27;20282;-77
2021/12/01 06:36:07;;;;;;;8.47;1.43;;;9.40;99.90;;;;;;5114052;27;20197;-77
2021/12/01 06:38:38;;;;;;;11.50;1.50;;;9.40;99.90;;;;;;5111853;27;20672;-77
2021/12/01 06:41:06;;;;;;;7.30;1.60;;;9.30;99.90;;;;;;5107910;28;20230;-77
2021/12/01 06:43:34;;;;;;;9.23;1.83;;;9.30;99.90;;;;;;5111869;27;20637;-77
2021/12/01 06:46:01;;;;;;;7.63;1.40;;;9.40;99.90;;;;;;5108971;27;20291;-76
2021/12/01 06:48:28;;;;;;;10.87;1.33;;;9.40;99.90;;;;;;5111449;28;20683;-77
2021/12/01 06:50:57;;;;;;;7.30;1.60;;;9.40;99.90;;;;;;5110695;27;20288;-77
2021/12/01 06:53:26;;;;;;;13.07;1.63;;;9.30;99.90;;;;;;5112593;28;20584;-77
2021/12/01 06:55:54;;;;;;;11.13;1.90;;;9.30;99.90;;;;;;5108688;28;20221;-76
2021/12/01 06:58:21;;;;;;;10.60;2.40;;;9.10;99.90;;;;;;5108165;28;20201;-77
2021/12/01 07:00:48;;;;;;;8.67;2.27;;;9.00;99.90;;;;;;5088752;28;20205;-76
2021/12/01 07:03:15;;;;;;;7.27;1.63;;;8.90;99.90;;;;;;5111360;28;20220;-76
2021/12/01 07:05:42;;;;;;;11.87;1.67;;;8.90;99.90;;;;;;5110888;28;20199;-76
2021/12/01 07:08:10;;;;;;;8.40;1.87;;;8.90;99.90;;;;;;5108787;28;20226;-76
2021/12/01 07:10:36;;;;;;;6.23;1.83;;;8.90;99.90;;;;;;5107817;28;20296;-76
2021/12/01 07:13:05;;;;;;;13.63;1.80;;;8.80;99.90;;;;;;5110572;28;20311;-77
2021/12/01 07:15:32;;;;;;;9.00;1.77;;;8.80;99.90;;;;;;5108697;28;20302;-77
2021/12/01 07:17:59;;;;;;;14.07;2.00;;;8.70;99.90;;;;;;5111410;28;20294;-77
2021/12/01 07:20:26;;;;;;;9.70;1.60;;;8.70;99.90;;;;;;5111564;28;20237;-76
2021/12/01 07:22:53;;;;;;;7.47;1.57;;;8.70;99.90;;;;;;5114662;27;20661;-76
2021/12/01 07:25:20;;;;;;;10.33;1.60;;;8.80;99.90;;;;;;5111847;27;20287;-77
2021/12/01 07:27:47;;;;;;;9.33;1.83;;;8.60;99.90;;;;;;5115060;27;20287;-77
2021/12/01 07:30:15;;;;;;;10.57;1.83;;;8.60;99.90;;;;;;5110232;27;20256;-76
2021/12/01 07:32:42;;;;;;;12.47;2.17;;;8.50;99.90;;;;;;5098750;28;20755;-76
2021/12/01 07:35:10;;;;;;;9.37;1.77;;;8.60;99.90;;;;;;5111373;28;20290;-77
2021/12/01 07:37:37;;;;;;;12.80;1.87;;;8.60;99.90;;;;;;5105900;28;20281;-76
2021/12/01 07:40:04;;;;;;;10.93;1.90;;;8.50;99.90;;;;;;5110912;28;20674;-76
2021/12/01 07:42:32;;;;;;;15.03;2.00;;;8.50;99.90;;;;;;5110310;28;20306;-76
2021/12/01 07:44:59;;;;;;;16.50;2.20;;;8.50;99.90;;;;;;5111752;28;20282;-76
2021/12/01 07:47:27;;;;;;;11.63;2.07;;;8.50;99.90;;;;;;5110932;28;20230;-76
2021/12/01 07:49:54;;;;;;;14.30;2.97;;;8.60;99.90;;;;;;5105894;28;20644;-77
2021/12/01 07:52:21;;;;;;;12.27;2.37;;;8.60;99.90;;;;;;5111136;28;20625;-76
2021/12/01 07:54:48;;;;;;;11.50;2.57;;;8.70;99.90;;;;;;5111031;28;21223;-76
2021/12/01 07:57:16;;;;;;;15.13;2.47;;;8.70;99.90;;;;;;5110487;28;20846;-76
2021/12/01 07:59:43;;;;;;;14.07;2.50;;;8.70;99.90;;;;;;5114553;27;20255;-76
2021/12/01 08:02:10;;;;;;;13.30;2.13;;;8.70;99.90;;;;;;5114593;28;20289;-76
2021/12/01 08:04:39;;;;;;;13.83;2.57;;;8.80;99.90;;;;;;5114882;28;20297;-76
2021/12/01 08:07:06;;;;;;;12.77;1.60;;;8.80;99.90;;;;;;5115195;28;20203;-77
2021/12/01 08:09:33;;;;;;;14.10;2.30;;;8.80;99.90;;;;;;5115550;28;20289;-77
2021/12/01 08:12:00;;;;;;;13.37;2.13;;;8.90;99.90;;;;;;5115514;28;20194;-77
2021/12/01 08:14:27;;;;;;;15.20;2.03;;;9.00;99.90;;;;;;5114962;28;20292;-77
2021/12/01 08:16:54;;;;;;;14.70;2.47;;;9.00;99.90;;;;;;5114143;28;20307;-77
2021/12/01 08:19:22;;;;;;;12.93;2.40;;;9.00;99.90;;;;;;5115843;27;20296;-76
2021/12/01 08:21:50;;;;;;;15.83;2.67;;;9.00;99.90;;;;;;5111984;28;20283;-77
2021/12/01 08:24:18;;;;;;;18.03;2.43;;;9.20;99.90;;;;;;5106048;28;20274;-76
2021/12/01 08:26:46;;;;;;;15.70;2.60;;;9.10;99.90;;;;;;5114477;28;20235;-76
2021/12/01 08:29:13;;;;;;;9.33;1.83;;;9.30;99.90;;;;;;5115137;28;20232;-77
2021/12/01 08:31:41;;;;;;;8.33;1.93;;;9.30;99.90;;;;;;5114658;27;20197;-77
2021/12/01 08:34:08;;;;;;;16.53;1.87;;;9.10;99.90;;;;;;5114062;28;20221;-77
2021/12/01 08:36:35;;;;;;;13.37;2.20;;;9.00;99.90;;;;;;5106404;28;20636;-77
2021/12/01 08:39:05;;;;;;;10.20;1.90;;;9.10;99.90;;;;;;5114419;28;20197;-77
2021/12/01 08:41:32;;;;;;;10.87;2.00;;;9.30;99.90;;;;;;5114958;27;20220;-77
2021/12/01 08:43:59;;;;;;;8.07;1.80;;;10.40;99.90;;;;;;5116745;27;20260;-77
2021/12/01 08:46:26;;;;;;;10.10;2.00;;;11.40;99.90;;;;;;5114684;28;20229;-77
2021/12/01 08:48:53;;;;;;;6.80;1.70;;;12.20;99.90;;;;;;5114108;28;20277;-78
2021/12/01 08:51:20;;;;;;;7.67;1.50;;;12.30;99.90;;;;;;5114624;28;20227;-77
2021/12/01 08:53:47;;;;;;;6.97;1.37;;;11.80;99.90;;;;;;5109219;27;20685;-77
2021/12/01 08:56:16;;;;;;;8.47;1.60;;;12.00;99.90;;;;;;5104594;28;20228;-77
2021/12/01 08:58:43;;;;;;;8.33;1.47;;;11.50;99.90;;;;;;5098952;27;20287;-76
2021/12/01 09:01:10;;;;;;;7.80;1.67;;;11.70;99.90;;;;;;5113739;28;20240;-76
2021/12/01 09:03:37;;;;;;;5.83;1.70;;;11.40;99.90;;;;;;5113052;27;20933;-77
2021/12/01 09:06:05;;;;;;;9.97;1.77;;;12.40;99.90;;;;;;5114505;27;20201;-77
2021/12/01 09:08:31;;;;;;;6.10;1.40;;;12.60;99.90;;;;;;5113555;27;20193;-78
2021/12/01 09:11:02;;;;;;;5.23;1.47;;;13.00;99.90;;;;;;5111434;28;20289;-77
2021/12/01 09:13:35;;;;;;;4.33;1.47;;;12.30;99.90;;;;;;5120074;27;20193;-77
2021/12/01 09:16:03;;;;;;;7.47;1.60;;;11.60;99.90;;;;;;5113293;28;20198;-76
2021/12/01 09:18:30;;;;;;;7.03;1.87;;;11.70;99.90;;;;;;5114411;27;20578;-78
2021/12/01 09:20:57;;;;;;;6.90;1.70;;;12.60;99.90;;;;;;5113822;28;20260;-78
2021/12/01 09:23:25;;;;;;;7.23;1.70;;;12.60;99.90;;;;;;5113710;28;20312;-75
2021/12/01 09:25:52;;;;;;;6.67;1.50;;;12.00;99.90;;;;;;5114900;27;20295;-78
2021/12/01 09:28:22;;;;;;;4.63;1.17;;;11.50;99.90;;;;;;5113535;27;20202;-77
2021/12/01 09:30:52;;;;;;;7.40;1.40;;;11.00;99.90;;;;;;5113349;28;20201;-77
2021/12/01 09:33:19;;;;;;;5.13;1.60;;;10.60;99.90;;;;;;5120392;27;20190;-78
2021/12/01 09:35:47;;;;;;;9.13;1.40;;;10.50;99.90;;;;;;5114354;27;20301;-77
2021/12/01 09:38:15;;;;;;;6.97;1.20;;;11.20;99.90;;;;;;5114126;27;20204;-78
2021/12/01 09:40:46;;;;;;;6.77;1.50;;;11.00;99.90;;;;;;5113546;28;20198;-77
2021/12/01 09:43:13;;;;;;;6.67;1.33;;;10.50;99.90;;;;;;5113247;28;20214;-77
2021/12/01 09:45:42;;;;;;;6.47;1.20;;;10.10;99.90;;;;;;5113081;28;20284;-78
2021/12/01 09:48:10;;;;;;;6.97;1.30;;;9.80;99.90;;;;;;5113703;27;20354;-77
2021/12/01 09:50:38;;;;;;;6.60;1.10;;;9.70;99.90;;;;;;5113905;28;20292;-77
2021/12/01 09:53:05;;;;;;;5.83;1.10;;;9.60;99.90;;;;;;5115244;27;20888;-77
2021/12/01 09:55:32;;;;;;;5.97;1.13;;;9.50;99.90;;;;;;5113526;27;20240;-77
2021/12/01 09:58:03;;;;;;;6.67;1.30;;;9.40;99.90;;;;;;5115101;27;20237;-77
2021/12/01 10:00:31;;;;;;;8.67;1.40;;;9.40;99.90;;;;;;5107728;27;20237;-78
2021/12/01 10:02:58;;;;;;;6.17;1.67;;;10.30;99.90;;;;;;5116997;27;20297;-78
2021/12/01 10:06:02;;;;;;;6.07;1.70;;;10.70;99.90;;;;;;5120331;27;20198;-78
2021/12/01 10:08:30;;;;;;;10.20;2.80;;;11.80;99.90;;;;;;5116261;27;20292;-78
2021/12/01 10:10:58;;;;;;;8.93;2.10;;;12.30;99.90;;;;;;5113275;28;20643;-77
2021/12/01 10:13:27;;;;;;;7.87;1.80;;;11.70;99.90;;;;;;5113805;27;20193;-78
2021/12/01 10:15:59;;;;;;;9.83;2.23;;;11.20;99.90;;;;;;5112980;27;20709;-77
2021/12/01 10:18:27;;;;;;;8.60;2.37;;;10.80;99.90;;;;;;5113551;27;20197;-77
2021/12/01 10:21:04;;;;;;;11.90;2.40;;;11.80;99.90;;;;;;5111564;28;20276;-77
2021/12/01 10:23:32;;;;;;;10.50;2.40;;;12.60;99.90;;;;;;5113835;27;20219;-78
2021/12/01 10:26:18;;;;;;;13.20;2.43;;;12.40;99.90;;;;;;5115959;27;20280;-78
2021/12/01 10:28:48;;;;;;;10.90;2.30;;;11.80;99.90;;;;;;5104196;28;20281;-77
2021/12/01 10:31:16;;;;;;;13.50;2.67;;;11.20;99.90;;;;;;5114255;28;20217;-77
2021/12/01 10:33:43;;;;;;;13.13;2.57;;;10.70;99.90;;;;;;5114909;27;20328;-77
2021/12/01 10:36:12;;;;;;;10.23;1.87;;;10.30;99.90;;;;;;5120847;27;20293;-77
2021/12/01 10:38:45;;;;;;;9.50;2.00;;;10.20;99.90;;;;;;5114923;27;20285;-75
2021/12/01 10:41:13;;;;;;;6.07;1.83;;;10.00;99.90;;;;;;5115858;27;20202;-78
2021/12/01 10:43:46;;;;;;;11.67;2.20;;;10.30;99.90;;;;;;5110917;28;20313;-77
2021/12/01 10:46:16;;;;;;;10.97;2.00;;;10.30;99.90;;;;;;5112372;28;20693;-78
2021/12/01 10:48:46;;;;;;;9.47;2.13;;;10.50;99.90;;;;;;5114069;27;20236;-78
2021/12/01 10:51:33;;;;;;;11.23;2.10;;;10.80;99.90;;;;;;5106472;28;20285;-78
2021/12/01 10:54:00;;;;;;;14.83;2.67;;;10.50;99.90;;;;;;5112277;27;20270;-77
2021/12/01 10:56:27;;;;;;;12.53;2.40;;;10.90;99.90;;;;;;5111911;28;20285;-77
2021/12/01 10:58:54;;;;;;;10.13;2.30;;;11.70;99.90;;;;;;5111666;27;20197;-77
2021/12/01 11:01:22;;;;;;;9.10;2.17;;;12.50;99.90;;;;;;5111948;28;20289;-77
2021/12/01 11:03:51;;;;;;;9.53;2.00;;;13.00;99.90;;;;;;5112612;28;20217;-77
2021/12/01 11:06:21;;;;;;;10.33;2.10;;;12.50;99.90;;;;;;5112381;28;20197;-77
2021/12/01 11:08:55;;;;;;;14.03;2.10;;;12.80;99.90;;;;;;5110993;28;20232;-78
2021/12/01 11:11:23;;;;;;;12.73;2.20;;;13.10;99.90;;;;;;5111624;28;20194;-78
2021/12/01 11:13:50;;;;;;;9.13;1.70;;;13.50;99.90;;;;;;5121802;27;20245;-78
2021/12/01 11:16:19;;;;;;;8.07;1.83;;;13.70;99.90;;;;;;5104536;28;20202;-77
2021/12/01 11:18:48;;;;;;;8.47;2.33;;;14.20;99.90;;;;;;5108502;28;20233;-78
2021/12/01 11:21:16;;;;;;;14.30;2.30;;;13.90;99.90;;;;;;5110748;28;20784;-78
2021/12/01 11:23:48;;;;;;;10.03;2.20;;;12.80;99.90;;;;;;5112544;28;20304;-77
2021/12/01 11:26:19;;;;;;;9.83;1.97;;;12.00;99.90;;;;;;5111019;28;20301;-77
2021/12/01 11:28:49;;;;;;;9.07;2.20;;;12.40;99.90;;;;;;5111864;28;20229;-78
2021/12/01 11:31:19;;;;;;;10.10;2.03;;;12.40;99.90;;;;;;5120866;27;20205;-78
2021/12/01 11:33:47;;;;;;;8.90;2.37;;;12.00;99.90;;;;;;5111571;28;20225;-78
2021/12/01 11:36:16;;;;;;;10.10;2.63;;;11.50;99.90;;;;;;5116095;27;20197;-78
2021/12/01 11:38:48;;;;;;;12.73;2.20;;;11.70;99.90;;;;;;5113441;27;20600;-77
2021/12/01 11:41:16;;;;;;;12.03;2.60;;;12.50;99.90;;;;;;5111012;28;20288;-77
2021/12/01 11:43:43;;;;;;;9.90;1.80;;;12.20;99.90;;;;;;5111927;28;20245;-78
2021/12/01 11:46:11;;;;;;;10.70;1.97;;;11.90;99.90;;;;;;5111873;28;20225;-79
2021/12/01 11:48:40;;;;;;;11.10;2.00;;;11.30;99.90;;;;;;5111769;28;20193;-78
2021/12/01 11:51:15;;;;;;;10.70;2.47;;;11.10;99.90;;;;;;5122528;28;20201;-78
2021/12/01 11:53:51;;;;;;;9.80;2.30;;;11.00;99.90;;;;;;5112830;28;20196;-77
2021/12/01 11:56:20;;;;;;;11.20;2.13;;;10.70;99.90;;;;;;5109678;28;20219;-77
2021/12/01 11:59:03;;;;;;;11.13;2.50;;;10.70;99.90;;;;;;5111666;28;20756;-77
2021/12/01 12:01:44;;;;;;;12.37;2.50;;;10.70;99.90;;;;;;5091847;28;20239;-77
2021/12/01 12:04:35;;;;;;;13.17;3.00;;;10.50;99.90;;;;;;5123768;28;20256;-78
2021/12/01 12:07:06;;;;;;;7.43;1.60;;;10.20;99.90;;;;;;5113203;28;20288;-77
2021/12/01 12:09:34;;;;;;;9.50;2.00;;;9.50;99.90;;;;;;5119388;28;21540;-77
2021/12/01 12:12:11;;;;;;;7.83;1.40;;;8.90;99.90;;;;;;5112486;28;20228;-77
2021/12/01 12:14:48;;;;;;;7.50;2.13;;;9.00;99.90;;;;;;5111080;28;20252;-78
2021/12/01 12:17:18;;;;;;;9.33;1.67;;;9.00;99.90;;;;;;5111336;28;20284;-78
2021/12/01 12:20:02;;;;;;;7.03;1.90;;;9.00;99.90;;;;;;5110560;28;20229;-77
2021/12/01 12:22:36;;;;;;;7.30;1.97;;;9.90;99.90;;;;;;5116066;28;20217;-78
2021/12/01 12:25:08;;;;;;;6.43;1.90;;;10.70;99.90;;;;;;5106727;28;20295;-77
2021/12/01 12:27:44;;;;;;;7.73;2.40;;;11.40;99.90;;;;;;5110826;28;20201;-78
2021/12/01 12:30:16;;;;;;;3.73;1.40;;;11.90;99.90;;;;;;5111518;28;20201;-77
2021/12/01 12:32:45;;;;;;;6.80;1.73;;;12.50;99.90;;;;;;5111436;28;20236;-77
2021/12/01 12:35:15;;;;;;;7.43;1.83;;;12.80;99.90;;;;;;5112017;28;20284;-77
2021/12/01 12:37:43;;;;;;;7.83;2.27;;;12.20;99.90;;;;;;5108752;28;20724;-77
2021/12/01 12:40:29;;;;;;;8.00;2.20;;;11.70;99.90;;;;;;5110877;28;20285;-77
2021/12/01 12:43:10;;;;;;;11.20;2.57;;;11.40;99.90;;;;;;5109998;28;20240;-77
2021/12/01 12:45:39;;;;;;;9.00;2.33;;;11.10;99.90;;;;;;5113738;27;20301;-77
2021/12/01 12:48:25;;;;;;;7.87;1.80;;;10.80;99.90;;;;;;5114686;28;20233;-77
2021/12/01 12:51:19;;;;;;;13.43;2.60;;;10.60;99.90;;;;;;5123012;27;20193;-77
2021/12/01 12:54:14;;;;;;;8.90;2.07;;;10.90;99.90;;;;;;5117446;27;20225;-78
2021/12/01 12:56:51;;;;;;;4.00;1.50;;;10.90;99.90;;;;;;5111159;27;20202;-77
2021/12/01 12:59:30;;;;;;;8.67;1.80;;;10.60;99.90;;;;;;5110937;28;20675;-77
2021/12/01 13:02:31;;;;;;;7.27;1.47;;;10.40;99.90;;;;;;5108787;28;20601;-78
2021/12/01 13:05:01;;;;;;;5.03;1.33;;;10.30;99.90;;;;;;5110034;28;20607;-77